Time;durP1;ratioP1;P1;durP2;ratioP2;P2;SDS_P1;SDS_P2;PMS_P1;PMS_P2;Temp;Humidity;BMP_temperature;BMP_pressure;BME280_temperature;BME280_humidity;BME280_pressure;Samples;Min_cycle;Max_cycle;Signal;HPM_P1;HPM_P2
2023/03/24 00:01:47;;;;;;;2.45;1.30;;;20.80;67.20;;;;;;4915018;28;88581;-75
2023/03/24 00:04:13;;;;;;;3.60;1.60;;;20.90;67.40;;;;;;4917197;28;86282;-76
2023/03/24 00:06:39;;;;;;;2.30;1.52;;;20.80;67.50;;;;;;4914521;28;85796;-75
2023/03/24 00:09:05;;;;;;;2.58;1.63;;;20.80;67.40;;;;;;4915330;28;87399;-75
2023/03/24 00:11:33;;;;;;;3.55;1.80;;;20.80;67.50;;;;;;4916368;28;86140;-75
2023/03/24 00:13:59;;;;;;;2.28;1.52;;;20.80;67.30;;;;;;4919724;28;85642;-75
2023/03/24 00:16:25;;;;;;;2.15;1.30;;;20.80;67.30;;;;;;4919164;28;86775;-77
2023/03/24 00:18:54;;;;;;;2.53;1.60;;;20.80;67.30;;;;;;4916988;28;87068;-77
2023/03/24 00:21:23;;;;;;;2.40;1.63;;;20.80;67.50;;;;;;4915507;28;86439;-76
2023/03/24 00:23:49;;;;;;;3.10;1.42;;;20.80;67.50;;;;;;4902393;28;86697;-76
2023/03/24 00:26:16;;;;;;;2.78;1.52;;;20.70;67.40;;;;;;4918573;28;85871;-76
2023/03/24 00:28:44;;;;;;;2.83;1.40;;;20.70;67.30;;;;;;4919538;28;86482;-76
2023/03/24 00:31:13;;;;;;;3.35;1.75;;;20.70;67.50;;;;;;4918003;28;85997;-76
2023/03/24 00:33:40;;;;;;;1.70;1.38;;;20.70;67.50;;;;;;4900719;28;89705;-77
2023/03/24 00:36:10;;;;;;;2.33;1.38;;;20.70;67.60;;;;;;4910857;28;86330;-76
2023/03/24 00:38:37;;;;;;;2.60;1.58;;;20.70;67.50;;;;;;4916638;28;87022;-76
2023/03/24 00:41:06;;;;;;;2.90;1.80;;;20.70;67.50;;;;;;4919471;28;86278;-76
2023/03/24 00:43:32;;;;;;;2.95;1.75;;;20.70;67.60;;;;;;4916248;28;86497;-76
2023/03/24 00:46:06;;;;;;;3.33;1.67;;;20.70;67.40;;;;;;4915885;28;86278;-77
2023/03/24 00:48:32;;;;;;;1.95;1.38;;;20.60;67.40;;;;;;4918891;28;87348;-77
2023/03/24 00:51:01;;;;;;;2.88;1.60;;;20.60;67.60;;;;;;4919881;28;86204;-76
2023/03/24 00:53:28;;;;;;;2.85;1.58;;;20.60;67.50;;;;;;4919792;28;85737;-76
2023/03/24 00:55:54;;;;;;;2.92;1.52;;;20.60;67.50;;;;;;4920542;28;86466;-76
2023/03/24 00:58:23;;;;;;;3.47;1.77;;;20.60;67.50;;;;;;4921597;28;86364;-76
2023/03/24 01:00:53;;;;;;;2.23;1.50;;;20.60;67.50;;;;;;4921398;28;87065;-76
2023/03/24 01:03:26;;;;;;;2.50;1.48;;;20.60;67.50;;;;;;4916534;28;86743;-76
2023/03/24 01:05:56;;;;;;;3.00;1.58;;;20.60;67.40;;;;;;4917513;28;86025;-77
2023/03/24 01:08:24;;;;;;;3.45;1.40;;;20.60;67.50;;;;;;4920912;28;87278;-77
2023/03/24 01:10:54;;;;;;;2.47;1.50;;;20.60;67.40;;;;;;4919671;28;87071;-77
2023/03/24 01:13:26;;;;;;;2.17;1.50;;;20.60;67.50;;;;;;4919796;28;85525;-76
2023/03/24 01:15:53;;;;;;;2.38;1.42;;;20.60;67.70;;;;;;4919201;28;85780;-77
2023/03/24 01:18:19;;;;;;;2.60;1.40;;;20.60;68.40;;;;;;4922348;28;93206;-76
2023/03/24 01:20:47;;;;;;;2.72;1.80;;;20.50;67.60;;;;;;4923048;28;87578;-77
2023/03/24 01:23:16;;;;;;;3.15;1.58;;;20.50;67.70;;;;;;4918012;28;86394;-77
2023/03/24 01:25:44;;;;;;;2.65;1.27;;;20.50;67.60;;;;;;4920969;28;86148;-76
2023/03/24 01:28:11;;;;;;;2.33;1.70;;;20.50;67.50;;;;;;4918251;28;86970;-76
2023/03/24 01:30:38;;;;;;;2.28;1.35;;;20.50;67.70;;;;;;4922546;28;86367;-76
2023/03/24 01:33:04;;;;;;;4.40;1.55;;;20.50;67.70;;;;;;4921852;28;86231;-76
2023/03/24 01:35:30;;;;;;;2.72;1.65;;;20.50;67.70;;;;;;4920775;28;85722;-77
2023/03/24 01:37:57;;;;;;;2.20;1.45;;;20.50;67.70;;;;;;4919207;28;86393;-76
2023/03/24 01:40:29;;;;;;;2.03;1.45;;;20.40;67.60;;;;;;4919952;28;86449;-76
2023/03/24 01:42:56;;;;;;;2.08;1.48;;;20.50;67.70;;;;;;4923954;28;85940;-76
2023/03/24 01:48:57;;;;;;;1.75;1.30;;;20.40;67.50;;;;;;4908149;28;87479;-76
2023/03/24 01:51:35;;;;;;;2.97;1.80;;;20.40;67.60;;;;;;4908814;28;86724;-77
2023/03/24 01:54:03;;;;;;;2.10;1.55;;;20.50;67.50;;;;;;4909457;28;86354;-76
2023/03/24 01:56:39;;;;;;;2.85;1.20;;;20.50;67.60;;;;;;4908606;28;86378;-76
2023/03/24 01:59:10;;;;;;;2.67;1.50;;;20.40;68.10;;;;;;4907460;28;88028;-77
2023/03/24 02:01:37;;;;;;;2.25;1.35;;;20.40;67.40;;;;;;4908644;28;87043;-76
2023/03/24 02:04:05;;;;;;;1.90;1.40;;;20.40;67.20;;;;;;4907924;28;85965;-76
2023/03/24 02:06:33;;;;;;;2.85;1.48;;;20.40;67.30;;;;;;4908555;28;86502;-76
2023/03/24 02:09:00;;;;;;;2.20;1.48;;;20.40;68.00;;;;;;4907814;28;90535;-76
2023/03/24 02:11:29;;;;;;;1.92;1.60;;;20.40;67.50;;;;;;4908445;28;86340;-76
2023/03/24 02:13:55;;;;;;;1.90;1.30;;;20.40;67.60;;;;;;4909096;28;86220;-76
2023/03/24 02:16:54;;;;;;;2.13;1.30;;;20.40;67.50;;;;;;4909070;28;86193;-76
2023/03/24 02:20:10;;;;;;;2.10;1.50;;;20.40;67.30;;;;;;4913525;28;86167;-76
2023/03/24 02:23:26;;;;;;;1.98;1.60;;;20.30;67.50;;;;;;4870978;28;90250;-76
2023/03/24 02:26:10;;;;;;;2.05;1.40;;;20.40;67.50;;;;;;4795923;29;87558;-77
2023/03/24 02:28:51;;;;;;;2.05;1.52;;;20.40;67.50;;;;;;4796104;29;86312;-76
2023/03/24 02:31:35;;;;;;;3.08;1.63;;;20.40;67.50;;;;;;4795596;29;86426;-77
2023/03/24 02:34:40;;;;;;;1.63;1.35;;;20.40;67.60;;;;;;4813706;29;85810;-76
2023/03/24 02:37:36;;;;;;;2.33;1.70;;;20.40;67.60;;;;;;4814073;29;86219;-77
2023/03/24 02:40:32;;;;;;;1.58;1.48;;;20.40;67.60;;;;;;4813926;29;86312;-76
2023/03/24 02:43:34;;;;;;;2.80;1.73;;;20.40;67.50;;;;;;4814286;29;87536;-76
2023/03/24 02:46:18;;;;;;;1.42;1.10;;;20.30;67.50;;;;;;4775757;29;87048;-76
2023/03/24 02:48:52;;;;;;;1.98;1.42;;;20.30;67.50;;;;;;4776513;29;86369;-77
2023/03/24 02:51:26;;;;;;;1.80;1.20;;;20.30;67.30;;;;;;4777093;29;86190;-76
2023/03/24 02:54:36;;;;;;;1.48;1.33;;;20.30;67.40;;;;;;4777858;29;87406;-76
2023/03/24 02:57:20;;;;;;;1.88;1.42;;;20.30;67.50;;;;;;4776783;29;86454;-76
2023/03/24 03:00:00;;;;;;;2.42;1.52;;;20.30;67.40;;;;;;4802435;29;86474;-76
2023/03/24 03:02:31;;;;;;;1.90;1.40;;;20.30;67.60;;;;;;4830473;29;85919;-76
2023/03/24 03:05:04;;;;;;;1.35;1.25;;;20.20;67.40;;;;;;4850476;29;88105;-76
2023/03/24 03:07:36;;;;;;;1.60;1.23;;;20.30;67.50;;;;;;4850486;29;89371;-76
2023/03/24 03:10:22;;;;;;;1.67;1.17;;;20.30;67.60;;;;;;4850349;28;86488;-76
2023/03/24 03:12:52;;;;;;;1.58;1.45;;;20.30;67.40;;;;;;4849429;29;86868;-77
2023/03/24 03:15:25;;;;;;;1.77;1.30;;;20.30;67.60;;;;;;4848145;29;86523;-76
2023/03/24 03:18:01;;;;;;;2.70;1.35;;;20.30;67.50;;;;;;4850626;29;86671;-77
2023/03/24 03:20:33;;;;;;;2.42;1.40;;;20.20;67.50;;;;;;4850367;28;85940;-76
2023/03/24 03:23:07;;;;;;;2.85;1.30;;;20.20;67.40;;;;;;4882314;28;86205;-75
2023/03/24 03:25:41;;;;;;;1.40;1.30;;;20.20;67.30;;;;;;4911786;28;88414;-76
2023/03/24 03:28:09;;;;;;;3.70;1.60;;;20.20;67.30;;;;;;4918181;28;87521;-76
2023/03/24 03:30:42;;;;;;;2.15;1.30;;;20.20;67.30;;;;;;4919027;28;86681;-76
2023/03/24 03:33:17;;;;;;;1.38;1.27;;;20.20;67.40;;;;;;4932237;28;86386;-76
2023/03/24 03:35:52;;;;;;;1.52;1.42;;;20.20;67.40;;;;;;4936196;28;87406;-76
2023/03/24 03:38:32;;;;;;;1.60;1.30;;;20.20;67.30;;;;;;4932521;28;86729;-76
2023/03/24 03:41:01;;;;;;;1.60;1.35;;;20.20;67.20;;;;;;4938725;28;86096;-76
2023/03/24 03:43:29;;;;;;;1.90;1.20;;;20.20;67.30;;;;;;4935190;28;86399;-76
2023/03/24 03:45:55;;;;;;;2.58;1.60;;;20.20;67.30;;;;;;4940944;28;87199;-76
2023/03/24 03:48:21;;;;;;;2.08;1.50;;;20.20;67.30;;;;;;4936015;28;86936;-76
2023/03/24 03:50:47;;;;;;;1.52;1.15;;;20.20;67.20;;;;;;4934189;28;85771;-76
2023/03/24 03:53:17;;;;;;;2.13;1.42;;;20.20;67.20;;;;;;4937955;28;85738;-76
2023/03/24 03:55:44;;;;;;;1.40;1.30;;;20.20;67.10;;;;;;4940324;28;86975;-76
2023/03/24 03:58:10;;;;;;;1.63;1.27;;;20.20;67.30;;;;;;4933779;28;86383;-76
2023/03/24 04:00:36;;;;;;;1.92;1.40;;;20.20;67.10;;;;;;4936357;28;86013;-77
2023/03/24 04:03:21;;;;;;;1.67;1.30;;;20.10;67.10;;;;;;4939047;28;86502;-77
2023/03/24 04:05:56;;;;;;;2.00;1.42;;;20.20;67.10;;;;;;4937048;28;86939;-76
2023/03/24 04:08:46;;;;;;;2.17;1.48;;;20.10;67.10;;;;;;4936900;28;86539;-76
2023/03/24 04:11:12;;;;;;;2.33;1.30;;;20.10;67.10;;;;;;4934485;28;86184;-76
2023/03/24 04:13:56;;;;;;;2.60;1.50;;;20.10;67.00;;;;;;4939553;28;86408;-76
2023/03/24 04:16:41;;;;;;;2.20;1.40;;;20.10;67.00;;;;;;4937387;28;85887;-76
2023/03/24 04:19:43;;;;;;;1.63;1.40;;;20.10;66.90;;;;;;4936836;28;86637;-76
2023/03/24 04:22:37;;;;;;;1.52;1.17;;;20.10;66.90;;;;;;4938072;28;85718;-76
2023/03/24 04:25:27;;;;;;;2.40;1.35;;;20.10;66.80;;;;;;4935528;28;86368;-76
2023/03/24 04:28:06;;;;;;;1.45;1.33;;;20.10;66.80;;;;;;4941298;28;85960;-76
2023/03/24 04:30:42;;;;;;;1.73;1.33;;;20.10;66.90;;;;;;4933840;28;86278;-76
2023/03/24 04:33:27;;;;;;;1.55;1.38;;;20.10;67.00;;;;;;4922670;28;86658;-76
2023/03/24 04:36:17;;;;;;;1.60;1.17;;;20.00;66.90;;;;;;4919017;28;86712;-76
2023/03/24 04:38:47;;;;;;;1.65;1.20;;;20.10;67.10;;;;;;4918485;28;86245;-76
2023/03/24 04:41:16;;;;;;;1.48;1.20;;;20.00;66.70;;;;;;4919011;28;88482;-76
2023/03/24 04:43:43;;;;;;;2.30;1.08;;;20.00;66.80;;;;;;4918283;28;85717;-76
2023/03/24 04:46:09;;;;;;;1.85;1.20;;;20.00;67.00;;;;;;4917972;28;86223;-77
2023/03/24 04:48:35;;;;;;;1.77;1.50;;;20.00;66.90;;;;;;4915350;28;86252;-76
2023/03/24 04:51:02;;;;;;;1.85;1.30;;;20.00;66.80;;;;;;4917671;28;86480;-77
2023/03/24 04:53:29;;;;;;;1.80;1.20;;;20.00;66.90;;;;;;4920339;28;85933;-77
2023/03/24 04:56:09;;;;;;;1.98;1.33;;;20.00;66.80;;;;;;4917269;28;86015;-77
2023/03/24 04:58:35;;;;;;;2.10;1.30;;;20.00;66.80;;;;;;4914687;28;91005;-76
2023/03/24 05:01:02;;;;;;;3.20;1.55;;;19.90;66.80;;;;;;4916100;28;86863;-76
2023/03/24 05:03:27;;;;;;;1.58;1.25;;;20.00;66.90;;;;;;4915342;28;86869;-76
2023/03/24 05:05:53;;;;;;;1.50;1.40;;;20.00;66.90;;;;;;4918189;28;86128;-76
2023/03/24 05:08:20;;;;;;;1.92;1.35;;;20.00;66.90;;;;;;4917135;28;86562;-77
2023/03/24 05:10:46;;;;;;;2.50;1.63;;;20.00;67.00;;;;;;4915118;28;86806;-76
2023/03/24 05:13:12;;;;;;;1.27;1.17;;;20.00;67.00;;;;;;4918677;28;85983;-76
2023/03/24 05:15:38;;;;;;;1.38;1.20;;;19.90;67.00;;;;;;4915247;28;86478;-76
2023/03/24 05:18:06;;;;;;;2.22;1.27;;;19.90;67.00;;;;;;4915227;28;86973;-77
2023/03/24 05:20:32;;;;;;;1.45;1.15;;;19.90;66.90;;;;;;4915700;28;89789;-76
2023/03/24 05:22:57;;;;;;;1.90;1.35;;;19.90;66.90;;;;;;4916423;28;86324;-76
2023/03/24 05:25:23;;;;;;;1.85;1.40;;;19.90;67.00;;;;;;4917764;28;86481;-77
2023/03/24 05:27:49;;;;;;;2.15;1.63;;;19.90;66.90;;;;;;4914523;28;88554;-77
2023/03/24 05:30:15;;;;;;;1.95;1.35;;;19.90;66.90;;;;;;4915575;28;87415;-77
2023/03/24 05:32:41;;;;;;;1.83;1.40;;;19.90;66.90;;;;;;4916283;28;86293;-76
2023/03/24 05:35:07;;;;;;;1.38;1.25;;;19.90;67.00;;;;;;4916769;28;86607;-76
2023/03/24 05:37:32;;;;;;;1.88;1.42;;;19.90;66.90;;;;;;4918960;28;87455;-76
2023/03/24 05:39:58;;;;;;;2.22;1.38;;;19.90;66.90;;;;;;4920772;28;86648;-76
2023/03/24 05:42:24;;;;;;;1.85;1.33;;;19.90;66.80;;;;;;4918971;28;86175;-76
2023/03/24 05:44:50;;;;;;;1.98;1.10;;;19.90;66.90;;;;;;4921270;28;86047;-76
2023/03/24 05:47:18;;;;;;;2.05;1.48;;;19.90;66.90;;;;;;4916555;28;86267;-76
2023/03/24 05:49:45;;;;;;;1.63;1.37;;;19.90;66.80;;;;;;4919139;28;86460;-76
2023/03/24 05:52:11;;;;;;;2.05;1.38;;;19.90;66.90;;;;;;4918119;28;86229;-77
2023/03/24 05:54:38;;;;;;;2.63;1.50;;;19.90;67.10;;;;;;4920074;28;86551;-76
2023/03/24 05:57:06;;;;;;;1.27;1.10;;;19.80;67.00;;;;;;4920318;28;94490;-76
2023/03/24 05:59:33;;;;;;;1.67;1.40;;;19.80;66.90;;;;;;4919565;28;86533;-77
2023/03/24 06:01:59;;;;;;;2.10;1.45;;;19.80;66.90;;;;;;4917376;28;85807;-76
2023/03/24 06:04:29;;;;;;;2.08;1.50;;;19.80;67.10;;;;;;4917171;28;85961;-76
2023/03/24 06:06:57;;;;;;;1.80;1.45;;;19.80;66.90;;;;;;4923105;28;87787;-76
2023/03/24 06:09:27;;;;;;;2.30;1.57;;;19.80;66.80;;;;;;4914638;28;88275;-77
2023/03/24 06:11:54;;;;;;;1.48;1.20;;;19.80;66.90;;;;;;4917013;28;85803;-77
2023/03/24 06:14:19;;;;;;;2.75;1.40;;;19.80;67.00;;;;;;4921661;28;85886;-77
2023/03/24 06:16:48;;;;;;;1.30;1.20;;;19.80;67.00;;;;;;4918938;28;87435;-76
2023/03/24 06:19:14;;;;;;;1.20;1.00;;;19.80;67.60;;;;;;4919404;28;86832;-76
2023/03/24 06:21:40;;;;;;;1.50;1.30;;;19.90;66.90;;;;;;4918795;28;86110;-77
2023/03/24 06:24:06;;;;;;;1.20;1.10;;;19.90;66.90;;;;;;4922556;28;85877;-77
2023/03/24 06:26:31;;;;;;;1.38;1.13;;;19.90;66.70;;;;;;4920101;28;86962;-77
2023/03/24 06:28:57;;;;;;;2.15;1.45;;;19.90;66.70;;;;;;4917796;28;90280;-76
2023/03/24 06:31:24;;;;;;;1.10;1.00;;;19.90;66.50;;;;;;4920240;28;86142;-76
2023/03/24 06:33:51;;;;;;;1.45;1.00;;;20.00;67.40;;;;;;4919508;28;86243;-76
2023/03/24 06:36:17;;;;;;;1.73;1.15;;;20.00;66.70;;;;;;4917689;28;86959;-76
2023/03/24 06:38:44;;;;;;;1.25;1.15;;;20.00;66.60;;;;;;4923100;28;86397;-76
2023/03/24 06:41:10;;;;;;;1.90;1.52;;;20.00;66.40;;;;;;4917750;28;86277;-76
2023/03/24 06:43:36;;;;;;;1.65;1.13;;;20.00;66.40;;;;;;4922121;28;86322;-76
2023/03/24 06:46:02;;;;;;;2.05;1.40;;;20.10;66.30;;;;;;4918738;28;88022;-76
2023/03/24 06:48:28;;;;;;;1.70;1.50;;;20.00;66.40;;;;;;4918218;28;90699;-76
2023/03/24 06:50:54;;;;;;;1.75;1.25;;;20.00;66.40;;;;;;4918278;28;86421;-77
2023/03/24 06:53:21;;;;;;;1.20;1.10;;;20.00;66.50;;;;;;4901190;28;86990;-76
2023/03/24 06:55:50;;;;;;;1.45;1.35;;;20.00;66.40;;;;;;4915453;28;86960;-76
2023/03/24 06:58:16;;;;;;;1.73;1.20;;;20.00;66.40;;;;;;4900530;28;88410;-76
2023/03/24 07:00:43;;;;;;;1.65;1.30;;;20.00;66.60;;;;;;4918204;28;86129;-76
2023/03/24 07:03:09;;;;;;;2.40;1.48;;;20.00;66.60;;;;;;4920292;28;86056;-76
2023/03/24 07:05:39;;;;;;;2.75;1.20;;;20.00;66.60;;;;;;4917528;28;87947;-76
2023/03/24 07:08:04;;;;;;;1.58;1.20;;;20.10;66.10;;;;;;4917405;28;86274;-76
2023/03/24 07:10:30;;;;;;;2.13;1.20;;;20.20;66.20;;;;;;4918365;28;86165;-76
2023/03/24 07:12:56;;;;;;;1.85;1.30;;;20.30;65.80;;;;;;4917839;28;85762;-76
2023/03/24 07:15:22;;;;;;;2.38;1.52;;;20.30;65.60;;;;;;4918268;28;86934;-76
2023/03/24 07:17:48;;;;;;;2.47;1.70;;;20.40;66.00;;;;;;4918369;28;86279;-76
2023/03/24 07:20:14;;;;;;;2.25;1.30;;;20.50;66.00;;;;;;4918617;28;91169;-76
2023/03/24 07:22:40;;;;;;;5.35;1.35;;;20.60;65.50;;;;;;4917894;28;86059;-76
2023/03/24 07:25:07;;;;;;;2.75;1.55;;;20.60;65.30;;;;;;4918998;28;87100;-76
2023/03/24 07:27:33;;;;;;;2.50;1.60;;;20.60;66.00;;;;;;4919975;28;86525;-77
2023/03/24 07:30:00;;;;;;;2.10;1.33;;;20.50;66.10;;;;;;4919189;28;86555;-76
2023/03/24 07:32:28;;;;;;;5.50;1.80;;;20.60;66.70;;;;;;4923762;28;86283;-77
2023/03/24 07:34:53;;;;;;;1.48;1.27;;;20.60;66.60;;;;;;4941297;28;86708;-77
2023/03/24 07:37:19;;;;;;;3.90;1.65;;;20.60;66.70;;;;;;4936848;28;86018;-77
2023/03/24 07:39:45;;;;;;;3.65;1.80;;;20.60;66.70;;;;;;4934975;28;85979;-77
2023/03/24 07:42:10;;;;;;;4.93;2.08;;;20.60;66.40;;;;;;4936698;28;85858;-77
2023/03/24 07:44:36;;;;;;;2.58;1.50;;;20.50;66.90;;;;;;4939544;28;87208;-78
2023/03/24 07:47:02;;;;;;;3.30;2.00;;;20.50;67.00;;;;;;4941547;28;87710;-77
2023/03/24 07:49:27;;;;;;;1.85;1.10;;;20.50;67.40;;;;;;4938705;28;85703;-77
2023/03/24 07:51:53;;;;;;;3.70;1.80;;;20.50;67.30;;;;;;4940206;28;85974;-77
2023/03/24 07:54:19;;;;;;;3.92;2.10;;;20.50;67.30;;;;;;4941646;28;87975;-77
2023/03/24 07:56:44;;;;;;;4.82;1.67;;;20.60;67.30;;;;;;4936999;28;86610;-77
2023/03/24 07:59:10;;;;;;;2.85;1.65;;;20.60;67.30;;;;;;4939570;28;86100;-77
2023/03/24 08:01:37;;;;;;;5.85;1.67;;;20.60;67.00;;;;;;4936992;28;86816;-77
2023/03/24 08:04:05;;;;;;;1.70;1.50;;;20.70;67.20;;;;;;4940655;28;87354;-77
2023/03/24 08:06:31;;;;;;;3.42;1.83;;;20.70;67.20;;;;;;4937000;28;87143;-77
2023/03/24 08:08:57;;;;;;;3.67;1.48;;;20.90;66.80;;;;;;4935438;28;86264;-77
2023/03/24 08:11:22;;;;;;;2.13;1.48;;;20.90;66.60;;;;;;4935772;28;85975;-77
2023/03/24 08:13:48;;;;;;;4.55;1.73;;;20.90;66.70;;;;;;4956133;28;90764;-77
2023/03/24 08:16:16;;;;;;;3.10;1.60;;;20.80;66.30;;;;;;4893367;28;86598;-77
2023/03/24 08:18:42;;;;;;;4.40;1.60;;;20.80;66.10;;;;;;4948966;28;85878;-77
2023/03/24 08:21:08;;;;;;;2.47;1.65;;;20.80;66.30;;;;;;4936712;28;85925;-77
2023/03/24 08:23:35;;;;;;;3.42;1.77;;;20.80;66.30;;;;;;4935199;28;86485;-77
2023/03/24 08:26:01;;;;;;;4.75;1.65;;;20.90;66.00;;;;;;4935174;28;86465;-76
2023/03/24 08:28:27;;;;;;;2.63;1.35;;;20.90;66.30;;;;;;4937976;28;86124;-77
2023/03/24 08:30:52;;;;;;;2.95;1.73;;;20.90;66.90;;;;;;4938307;28;86431;-77
2023/03/24 08:33:18;;;;;;;3.08;1.30;;;20.90;65.90;;;;;;4925479;28;86948;-77
2023/03/24 08:35:45;;;;;;;3.90;2.00;;;20.80;66.20;;;;;;4917821;28;86681;-77
2023/03/24 08:38:11;;;;;;;7.13;2.22;;;20.80;66.20;;;;;;4917679;28;86012;-77
2023/03/24 08:40:38;;;;;;;8.65;2.25;;;20.90;65.60;;;;;;4917780;28;87219;-77
2023/03/24 08:43:10;;;;;;;7.03;2.20;;;20.90;65.70;;;;;;4917198;28;87378;-77
2023/03/24 08:45:36;;;;;;;3.80;2.03;;;20.90;65.50;;;;;;4916886;28;86882;-77
2023/03/24 08:48:04;;;;;;;5.18;2.25;;;20.80;65.50;;;;;;4915403;28;87028;-77
2023/03/24 08:50:33;;;;;;;5.90;2.00;;;20.80;65.40;;;;;;4915571;28;86325;-77
2023/03/24 08:52:59;;;;;;;;;;;20.80;65.90;;;;;;4918772;28;87493;-76
2023/03/24 08:55:26;;;;;;;14.80;2.85;;;20.70;65.90;;;;;;4920490;28;86931;-77
2023/03/24 08:57:52;;;;;;;11.88;3.60;;;20.80;65.10;;;;;;4915085;28;86133;-77
2023/03/24 09:00:19;;;;;;;6.95;2.83;;;20.70;65.70;;;;;;4918439;28;86109;-77
2023/03/24 09:02:47;;;;;;;9.55;3.05;;;20.80;65.90;;;;;;4916070;28;87014;-77
2023/03/24 09:05:14;;;;;;;13.05;3.65;;;20.70;66.20;;;;;;4914486;28;86446;-77
2023/03/24 09:07:41;;;;;;;17.58;4.13;;;20.60;66.00;;;;;;4917877;28;86413;-77
2023/03/24 09:10:08;;;;;;;14.88;4.15;;;20.60;66.10;;;;;;4915658;28;86352;-77
2023/03/24 09:12:35;;;;;;;17.83;4.13;;;20.60;66.10;;;;;;4921071;28;86634;-77
2023/03/24 09:15:01;;;;;;;16.67;5.05;;;20.60;66.10;;;;;;4920845;28;86396;-77
2023/03/24 09:17:27;;;;;;;18.92;4.65;;;20.60;66.20;;;;;;4921121;28;86455;-77
2023/03/24 09:19:52;;;;;;;15.80;4.05;;;20.70;66.40;;;;;;4918863;28;86038;-77
2023/03/24 09:22:18;;;;;;;13.52;3.97;;;20.60;66.40;;;;;;4920332;28;86835;-77
2023/03/24 09:24:44;;;;;;;13.82;4.20;;;20.60;66.50;;;;;;4915646;28;86232;-77
2023/03/24 09:27:10;;;;;;;12.48;3.80;;;20.60;66.20;;;;;;4919590;28;86173;-77
2023/03/24 09:29:35;;;;;;;11.35;3.47;;;20.60;65.90;;;;;;4918227;28;86539;-76
2023/03/24 09:32:01;;;;;;;14.35;4.15;;;20.60;66.10;;;;;;4920095;28;87116;-76
2023/03/24 09:34:27;;;;;;;10.00;3.25;;;20.50;66.10;;;;;;4919235;28;86433;-76
2023/03/24 09:36:52;;;;;;;15.95;4.85;;;20.50;66.00;;;;;;4918718;28;85967;-77
2023/03/24 09:39:18;;;;;;;11.23;3.50;;;20.50;66.10;;;;;;4918309;28;86401;-77
2023/03/24 09:41:49;;;;;;;12.95;3.97;;;20.40;65.90;;;;;;4918362;28;86951;-76
2023/03/24 09:44:21;;;;;;;18.35;4.50;;;20.50;65.70;;;;;;4919979;28;86884;-77
2023/03/24 09:47:15;;;;;;;11.40;4.55;;;20.40;65.70;;;;;;4917872;28;86032;-77
2023/03/24 09:49:43;;;;;;;17.88;5.03;;;20.50;66.00;;;;;;4853940;28;85771;-77
2023/03/24 09:52:12;;;;;;;12.48;4.47;;;20.50;66.10;;;;;;4853083;28;87304;-77
2023/03/24 09:54:38;;;;;;;13.77;4.47;;;20.60;65.70;;;;;;4852834;28;87425;-77
2023/03/24 09:57:14;;;;;;;17.48;4.85;;;20.60;65.70;;;;;;4853623;28;86517;-77
2023/03/24 09:59:40;;;;;;;15.73;4.30;;;20.50;66.00;;;;;;4852597;28;86244;-77
2023/03/24 10:02:17;;;;;;;13.45;4.95;;;20.60;65.40;;;;;;4852562;28;88271;-77
2023/03/24 10:04:44;;;;;;;11.75;4.05;;;20.60;65.30;;;;;;4851710;28;86435;-77
2023/03/24 10:07:33;;;;;;;11.57;4.47;;;20.60;65.60;;;;;;4852815;28;86550;-77
2023/03/24 10:09:59;;;;;;;;;;;20.60;65.30;;;;;;4853888;28;86429;-77
2023/03/24 10:12:42;;;;;;;16.55;5.20;;;20.70;65.10;;;;;;4852981;28;87130;-77
2023/03/24 10:15:52;;;;;;;11.80;4.22;;;20.70;65.10;;;;;;4852109;28;87170;-77
2023/03/24 10:18:44;;;;;;;11.93;3.95;;;20.70;65.00;;;;;;4804636;29;86463;-77
2023/03/24 10:21:10;;;;;;;16.10;4.97;;;20.70;64.60;;;;;;4803591;29;85974;-77
2023/03/24 10:24:10;;;;;;;18.05;4.78;;;20.70;64.60;;;;;;4804173;29;87187;-77
2023/03/24 10:26:59;;;;;;;12.88;4.50;;;20.70;64.40;;;;;;4820966;29;86380;-78
2023/03/24 10:29:25;;;;;;;;;;;20.70;64.70;;;;;;4837334;29;86170;-78
2023/03/24 10:32:03;;;;;;;13.25;4.55;;;20.70;64.50;;;;;;4846837;28;87189;-78
2023/03/24 10:34:32;;;;;;;16.60;4.95;;;20.70;64.50;;;;;;4869655;28;91760;-79
2023/03/24 10:37:01;;;;;;;15.30;4.87;;;20.80;63.80;;;;;;4871328;28;86540;-78
2023/03/24 10:39:28;;;;;;;16.40;5.65;;;20.80;64.30;;;;;;4869176;28;86435;-79
2023/03/24 10:41:55;;;;;;;11.88;4.32;;;20.80;64.30;;;;;;4870473;28;85921;-78
2023/03/24 10:44:22;;;;;;;12.75;4.65;;;20.70;65.00;;;;;;4870430;28;86873;-79
2023/03/24 10:46:52;;;;;;;12.35;4.03;;;20.70;65.10;;;;;;4871812;28;86795;-79
2023/03/24 10:49:20;;;;;;;14.15;4.80;;;20.70;64.90;;;;;;4870062;28;86309;-78
2023/03/24 10:51:51;;;;;;;15.05;4.60;;;20.70;64.80;;;;;;4870772;28;86486;-78
2023/03/24 10:54:29;;;;;;;12.48;4.80;;;20.70;65.00;;;;;;4870493;28;87133;-78
2023/03/24 10:57:04;;;;;;;12.70;4.50;;;20.70;65.20;;;;;;4937754;28;86763;-79
2023/03/24 11:00:00;;;;;;;15.77;5.10;;;20.70;65.30;;;;;;4938481;28;85626;-79
2023/03/24 11:02:30;;;;;;;17.20;5.00;;;20.70;65.60;;;;;;4935896;28;86553;-78
2023/03/24 11:05:15;;;;;;;16.10;4.82;;;20.80;65.90;;;;;;4943119;28;88102;-79
2023/03/24 11:07:45;;;;;;;17.10;4.82;;;20.80;65.50;;;;;;4936605;28;90875;-78
2023/03/24 11:10:17;;;;;;;14.05;5.03;;;20.80;65.70;;;;;;4941165;28;86565;-78
2023/03/24 11:12:52;;;;;;;15.82;5.15;;;20.80;66.00;;;;;;4937934;28;86468;-78
2023/03/24 11:15:18;;;;;;;13.20;4.03;;;20.70;66.10;;;;;;4940897;28;86535;-78
2023/03/24 11:18:02;;;;;;;19.98;5.22;;;20.80;66.20;;;;;;4938922;28;86872;-78
2023/03/24 11:20:33;;;;;;;14.95;4.28;;;20.80;64.60;;;;;;4941304;28;86083;-78
2023/03/24 11:23:04;;;;;;;15.18;5.65;;;20.90;64.50;;;;;;4939880;28;86545;-78
2023/03/24 11:25:32;;;;;;;14.80;5.15;;;20.90;63.90;;;;;;4939825;28;87490;-78
2023/03/24 11:28:01;;;;;;;17.05;5.82;;;20.90;64.00;;;;;;4942470;28;86999;-78
2023/03/24 11:30:32;;;;;;;12.95;5.38;;;20.80;64.20;;;;;;4940076;28;86113;-79
2023/03/24 11:32:58;;;;;;;17.13;5.53;;;20.90;64.90;;;;;;4925953;28;85792;-78
2023/03/24 11:35:25;;;;;;;16.17;5.72;;;20.80;63.10;;;;;;4916208;28;87428;-78
2023/03/24 11:37:51;;;;;;;14.10;5.72;;;20.70;64.40;;;;;;4920544;28;86619;-78
2023/03/24 11:40:24;;;;;;;16.00;6.18;;;20.70;64.70;;;;;;4919288;28;86456;-79
2023/03/24 11:42:59;;;;;;;12.15;5.65;;;20.70;65.70;;;;;;4917900;28;85838;-78
2023/03/24 11:45:36;;;;;;;14.32;5.93;;;20.70;66.10;;;;;;4912557;28;87378;-78
2023/03/24 11:48:10;;;;;;;14.10;5.10;;;20.70;66.60;;;;;;4918050;28;86823;-78
2023/03/24 11:50:38;;;;;;;19.70;6.10;;;20.70;66.70;;;;;;4891812;28;86519;-78
2023/03/24 11:53:06;;;;;;;18.10;6.30;;;20.70;66.90;;;;;;4917351;28;86516;-79
2023/03/24 11:55:52;;;;;;;12.60;5.73;;;20.70;67.30;;;;;;4915275;28;87507;-78
2023/03/24 11:58:34;;;;;;;13.93;5.72;;;20.60;68.80;;;;;;4915632;28;87000;-78
2023/03/24 12:01:16;;;;;;;15.05;5.53;;;20.70;70.60;;;;;;4919263;28;85988;-78
2023/03/24 12:04:07;;;;;;;15.98;5.43;;;20.70;71.60;;;;;;4918908;28;86667;-76
2023/03/24 12:06:51;;;;;;;18.25;5.45;;;20.70;70.80;;;;;;4919525;28;86955;-77
2023/03/24 12:09:42;;;;;;;19.77;6.22;;;20.70;71.30;;;;;;4916807;28;86230;-76
2023/03/24 12:12:35;;;;;;;12.77;5.13;;;20.80;70.90;;;;;;4915323;28;86138;-77
2023/03/24 12:15:31;;;;;;;11.90;5.93;;;20.70;70.90;;;;;;4914776;28;86473;-76
2023/03/24 12:18:24;;;;;;;16.05;5.72;;;20.70;70.60;;;;;;4867122;28;86900;-77
2023/03/24 12:20:58;;;;;;;15.43;5.35;;;20.70;71.00;;;;;;4917702;28;86472;-77
2023/03/24 12:23:44;;;;;;;10.70;5.03;;;20.70;71.00;;;;;;4916183;28;85801;-77
2023/03/24 12:26:21;;;;;;;11.98;5.38;;;20.80;69.50;;;;;;4918583;28;86205;-77
2023/03/24 12:28:50;;;;;;;15.48;5.43;;;20.80;69.40;;;;;;4922641;28;86441;-77
2023/03/24 12:31:53;;;;;;;14.65;5.10;;;20.80;68.60;;;;;;4920986;28;86908;-77
2023/03/24 12:34:34;;;;;;;12.88;4.93;;;20.80;68.20;;;;;;4915674;28;86103;-77
2023/03/24 12:37:41;;;;;;;13.32;5.60;;;20.80;68.60;;;;;;4916398;28;85946;-77
2023/03/24 12:40:09;;;;;;;13.13;5.05;;;20.80;68.90;;;;;;4867362;28;86981;-77
2023/03/24 12:42:45;;;;;;;15.43;5.20;;;20.70;69.40;;;;;;4869035;28;86568;-77
2023/03/24 12:45:19;;;;;;;15.15;4.30;;;20.70;69.20;;;;;;4868675;28;86676;-77
2023/03/24 12:48:06;;;;;;;18.17;5.38;;;20.80;69.10;;;;;;4871315;28;86164;-77
2023/03/24 12:51:01;;;;;;;15.23;4.20;;;20.80;68.60;;;;;;4871125;28;87474;-77
2023/03/24 12:53:54;;;;;;;13.75;4.38;;;20.80;68.50;;;;;;4872307;28;86673;-77
2023/03/24 12:56:30;;;;;;;17.98;4.60;;;20.70;68.30;;;;;;4870764;28;86717;-77
2023/03/24 12:59:02;;;;;;;14.40;4.13;;;20.70;67.90;;;;;;4872863;28;86711;-76
2023/03/24 13:01:36;;;;;;;13.23;5.32;;;20.70;68.20;;;;;;4872424;28;90703;-77
2023/03/24 13:04:12;;;;;;;16.58;4.88;;;20.60;67.80;;;;;;4871707;28;86307;-77
2023/03/24 13:07:06;;;;;;;12.13;4.55;;;20.60;67.10;;;;;;4871862;28;86433;-77
2023/03/24 13:10:00;;;;;;;8.65;3.75;;;20.60;66.80;;;;;;4872502;28;86302;-77
2023/03/24 13:12:32;;;;;;;10.23;3.90;;;20.60;67.60;;;;;;4871870;28;87095;-77
2023/03/24 13:15:22;;;;;;;12.35;4.20;;;20.60;67.80;;;;;;4881688;28;86942;-77